sensor_id;sensor_type;location;lat;lon;timestamp;temperature;humidity
21648;DHT22;10985;54.182;7.890;2023-04-19T00:00:26;9.10;99.90
21648;DHT22;10985;54.182;7.890;2023-04-19T00:02:52;9.00;99.90
21648;DHT22;10985;54.182;7.890;2023-04-19T00:05:18;9.00;99.90
21648;DHT22;10985;54.182;7.890;2023-04-19T00:07:44;9.00;99.90
21648;DHT22;10985;54.182;7.890;2023-04-19T00:10:11;9.00;99.90
21648;DHT22;10985;54.182;7.890;2023-04-19T00:12:37;9.00;99.90
21648;DHT22;10985;54.182;7.890;2023-04-19T00:15:02;9.00;99.90
21648;DHT22;10985;54.182;7.890;2023-04-19T00:17:28;8.90;99.90
21648;DHT22;10985;54.182;7.890;2023-04-19T00:19:53;8.90;99.90
21648;DHT22;10985;54.182;7.890;2023-04-19T00:22:19;8.90;99.90
21648;DHT22;10985;54.182;7.890;2023-04-19T00:24:44;8.90;99.90
21648;DHT22;10985;54.182;7.890;2023-04-19T00:27:10;8.90;99.90
21648;DHT22;10985;54.182;7.890;2023-04-19T00:29:35;8.90;99.90
21648;DHT22;10985;54.182;7.890;2023-04-19T00:32:01;8.90;99.90
21648;DHT22;10985;54.182;7.890;2023-04-19T00:34:28;8.90;99.90
21648;DHT22;10985;54.182;7.890;2023-04-19T00:36:54;8.80;99.90
21648;DHT22;10985;54.182;7.890;2023-04-19T00:39:20;8.80;99.90
21648;DHT22;10985;54.182;7.890;2023-04-19T00:41:45;8.80;99.90
21648;DHT22;10985;54.182;7.890;2023-04-19T00:44:11;8.80;99.90
21648;DHT22;10985;54.182;7.890;2023-04-19T00:46:37;8.80;99.90
21648;DHT22;10985;54.182;7.890;2023-04-19T00:49:02;8.80;99.90
21648;DHT22;10985;54.182;7.890;2023-04-19T00:51:28;8.80;99.90
21648;DHT22;10985;54.182;7.890;2023-04-19T00:53:54;8.80;99.90
21648;DHT22;10985;54.182;7.890;2023-04-19T00:56:21;8.70;99.90
21648;DHT22;10985;54.182;7.890;2023-04-19T00:58:47;8.70;99.90
21648;DHT22;10985;54.182;7.890;2023-04-19T01:01:13;8.70;99.90
21648;DHT22;10985;54.182;7.890;2023-04-19T01:03:39;8.70;99.90
21648;DHT22;10985;54.182;7.890;2023-04-19T01:06:04;8.70;99.90
21648;DHT22;10985;54.182;7.890;2023-04-19T01:08:30;8.70;99.90
21648;DHT22;10985;54.182;7.890;2023-04-19T01:10:55;8.60;99.90
21648;DHT22;10985;54.182;7.890;2023-04-19T01:13:21;8.60;99.90
21648;DHT22;10985;54.182;7.890;2023-04-19T01:15:46;8.60;99.90
21648;DHT22;10985;54.182;7.890;2023-04-19T01:18:12;8.60;99.90
21648;DHT22;10985;54.182;7.890;2023-04-19T01:20:38;8.60;99.90
21648;DHT22;10985;54.182;7.890;2023-04-19T01:23:04;8.60;99.90
21648;DHT22;10985;54.182;7.890;2023-04-19T01:25:29;8.60;99.90
21648;DHT22;10985;54.182;7.890;2023-04-19T01:27:55;8.50;99.90
21648;DHT22;10985;54.182;7.890;2023-04-19T01:30:20;8.50;99.90
21648;DHT22;10985;54.182;7.890;2023-04-19T01:32:46;8.50;99.90
21648;DHT22;10985;54.182;7.890;2023-04-19T01:35:11;8.50;99.90
21648;DHT22;10985;54.182;7.890;2023-04-19T01:37:37;8.50;99.90
21648;DHT22;10985;54.182;7.890;2023-04-19T01:40:06;8.40;99.90
21648;DHT22;10985;54.182;7.890;2023-04-19T01:42:31;8.40;99.90
21648;DHT22;10985;54.182;7.890;2023-04-19T01:44:57;8.40;99.90
21648;DHT22;10985;54.182;7.890;2023-04-19T01:47:22;8.40;99.90
21648;DHT22;10985;54.182;7.890;2023-04-19T01:49:49;8.30;99.90
21648;DHT22;10985;54.182;7.890;2023-04-19T01:52:14;8.30;99.90
21648;DHT22;10985;54.182;7.890;2023-04-19T01:54:40;8.30;99.90
21648;DHT22;10985;54.182;7.890;2023-04-19T01:57:05;8.30;99.90
21648;DHT22;10985;54.182;7.890;2023-04-19T01:59:31;8.30;99.90
21648;DHT22;10985;54.182;7.890;2023-04-19T02:01:56;8.30;99.90
21648;DHT22;10985;54.182;7.890;2023-04-19T02:04:22;8.30;99.90
21648;DHT22;10985;54.182;7.890;2023-04-19T02:06:47;8.20;99.90
21648;DHT22;10985;54.182;7.890;2023-04-19T02:09:13;8.20;99.90
21648;DHT22;10985;54.182;7.890;2023-04-19T02:11:38;8.20;99.90
21648;DHT22;10985;54.182;7.890;2023-04-19T02:14:04;8.20;99.90
21648;DHT22;10985;54.182;7.890;2023-04-19T02:16:30;8.20;99.90
21648;DHT22;10985;54.182;7.890;2023-04-19T02:18:55;8.20;99.90
21648;DHT22;10985;54.182;7.890;2023-04-19T02:21:21;8.20;99.90
21648;DHT22;10985;54.182;7.890;2023-04-19T02:23:46;8.20;99.90
21648;DHT22;10985;54.182;7.890;2023-04-19T02:26:12;8.20;99.90
21648;DHT22;10985;54.182;7.890;2023-04-19T02:28:37;8.20;99.90
21648;DHT22;10985;54.182;7.890;2023-04-19T02:31:05;8.20;99.90
21648;DHT22;10985;54.182;7.890;2023-04-19T02:33:30;8.20;99.90
21648;DHT22;10985;54.182;7.890;2023-04-19T02:35:56;8.30;99.90
21648;DHT22;10985;54.182;7.890;2023-04-19T02:38:21;8.30;99.90
21648;DHT22;10985;54.182;7.890;2023-04-19T02:40:47;8.30;99.90
21648;DHT22;10985;54.182;7.890;2023-04-19T02:43:12;8.30;99.90
21648;DHT22;10985;54.182;7.890;2023-04-19T02:45:38;8.30;99.90
21648;DHT22;10985;54.182;7.890;2023-04-19T02:48:04;8.30;99.90
21648;DHT22;10985;54.182;7.890;2023-04-19T02:50:30;8.30;99.90
21648;DHT22;10985;54.182;7.890;2023-04-19T02:52:57;8.30;99.90
21648;DHT22;10985;54.182;7.890;2023-04-19T02:55:22;8.30;99.90
21648;DHT22;10985;54.182;7.890;2023-04-19T02:57:48;8.20;99.90
21648;DHT22;10985;54.182;7.890;2023-04-19T03:00:14;8.20;99.90
21648;DHT22;10985;54.182;7.890;2023-04-19T03:02:40;8.20;99.90
21648;DHT22;10985;54.182;7.890;2023-04-19T03:05:08;8.20;99.90
21648;DHT22;10985;54.182;7.890;2023-04-19T03:07:34;8.20;99.90
21648;DHT22;10985;54.182;7.890;2023-04-19T03:09:59;8.10;99.90
21648;DHT22;10985;54.182;7.890;2023-04-19T03:12:25;8.10;99.90
21648;DHT22;10985;54.182;7.890;2023-04-19T03:14:50;8.10;99.90
21648;DHT22;10985;54.182;7.890;2023-04-19T03:17:16;8.10;99.90
21648;DHT22;10985;54.182;7.890;2023-04-19T03:19:41;8.00;99.90
21648;DHT22;10985;54.182;7.890;2023-04-19T03:22:07;8.00;99.90
21648;DHT22;10985;54.182;7.890;2023-04-19T03:24:32;8.00;99.90
21648;DHT22;10985;54.182;7.890;2023-04-19T03:26:58;8.00;99.90
21648;DHT22;10985;54.182;7.890;2023-04-19T03:29:24;8.00;99.90
21648;DHT22;10985;54.182;7.890;2023-04-19T03:31:49;8.00;99.90
21648;DHT22;10985;54.182;7.890;2023-04-19T03:34:15;8.00;99.90
21648;DHT22;10985;54.182;7.890;2023-04-19T03:36:40;7.90;99.90
21648;DHT22;10985;54.182;7.890;2023-04-19T03:39:06;7.90;99.90
21648;DHT22;10985;54.182;7.890;2023-04-19T03:41:32;7.90;99.90
21648;DHT22;10985;54.182;7.890;2023-04-19T03:43:57;7.90;99.90
21648;DHT22;10985;54.182;7.890;2023-04-19T03:46:23;7.90;99.90
21648;DHT22;10985;54.182;7.890;2023-04-19T03:48:49;7.90;99.90
21648;DHT22;10985;54.182;7.890;2023-04-19T03:51:15;7.90;99.90
21648;DHT22;10985;54.182;7.890;2023-04-19T03:53:41;7.90;99.90
21648;DHT22;10985;54.182;7.890;2023-04-19T03:56:06;7.80;99.90
21648;DHT22;10985;54.182;7.890;2023-04-19T03:58:32;7.90;99.90
21648;DHT22;10985;54.182;7.890;2023-04-19T04:00:58;7.80;99.90
21648;DHT22;10985;54.182;7.890;2023-04-19T04:03:25;7.80;99.90
21648;DHT22;10985;54.182;7.890;2023-04-19T04:05:51;7.80;99.90
21648;DHT22;10985;54.182;7.890;2023-04-19T04:08:16;7.80;99.90
21648;DHT22;10985;54.182;7.890;2023-04-19T04:10:42;7.70;99.90
21648;DHT22;10985;54.182;7.890;2023-04-19T04:13:07;7.80;99.90
21648;DHT22;10985;54.182;7.890;2023-04-19T04:15:33;7.80;99.90
21648;DHT22;10985;54.182;7.890;2023-04-19T04:17:58;7.70;99.90
21648;DHT22;10985;54.182;7.890;2023-04-19T04:20:24;7.80;99.90
21648;DHT22;10985;54.182;7.890;2023-04-19T04:22:49;7.70;99.90
21648;DHT22;10985;54.182;7.890;2023-04-19T04:25:16;7.70;99.90
21648;DHT22;10985;54.182;7.890;2023-04-19T04:27:41;7.70;99.90
21648;DHT22;10985;54.182;7.890;2023-04-19T04:30:09;7.70;99.90
21648;DHT22;10985;54.182;7.890;2023-04-19T04:32:35;7.70;99.90
21648;DHT22;10985;54.182;7.890;2023-04-19T04:35:02;7.70;99.90
21648;DHT22;10985;54.182;7.890;2023-04-19T04:37:27;7.70;99.90
21648;DHT22;10985;54.182;7.890;2023-04-19T04:39:55;7.70;99.90
21648;DHT22;10985;54.182;7.890;2023-04-19T04:42:20;7.70;99.90
21648;DHT22;10985;54.182;7.890;2023-04-19T04:44:46;7.70;99.90
21648;DHT22;10985;54.182;7.890;2023-04-19T04:47:12;7.70;99.90
21648;DHT22;10985;54.182;7.890;2023-04-19T04:49:38;7.70;99.90
21648;DHT22;10985;54.182;7.890;2023-04-19T04:52:04;7.80;99.90
21648;DHT22;10985;54.182;7.890;2023-04-19T04:54:29;7.70;99.90
21648;DHT22;10985;54.182;7.890;2023-04-19T04:56:55;7.80;99.90
21648;DHT22;10985;54.182;7.890;2023-04-19T04:59:20;7.80;99.90
21648;DHT22;10985;54.182;7.890;2023-04-19T05:01:46;7.80;99.90
21648;DHT22;10985;54.182;7.890;2023-04-19T05:04:11;7.80;99.90
21648;DHT22;10985;54.182;7.890;2023-04-19T05:06:37;7.80;99.90
21648;DHT22;10985;54.182;7.890;2023-04-19T05:09:05;7.90;99.90
21648;DHT22;10985;54.182;7.890;2023-04-19T05:11:31;7.90;99.90
21648;DHT22;10985;54.182;7.890;2023-04-19T05:13:56;7.90;99.90
21648;DHT22;10985;54.182;7.890;2023-04-19T05:16:22;7.90;99.90
21648;DHT22;10985;54.182;7.890;2023-04-19T05:18:47;7.90;99.90
21648;DHT22;10985;54.182;7.890;2023-04-19T05:21:13;7.90;99.90
21648;DHT22;10985;54.182;7.890;2023-04-19T05:23:38;7.90;99.90
21648;DHT22;10985;54.182;7.890;2023-04-19T05:26:04;8.00;99.90
21648;DHT22;10985;54.182;7.890;2023-04-19T05:28:29;7.90;99.90
21648;DHT22;10985;54.182;7.890;2023-04-19T05:30:55;8.00;99.90
21648;DHT22;10985;54.182;7.890;2023-04-19T05:33:21;8.00;99.90
21648;DHT22;10985;54.182;7.890;2023-04-19T05:35:46;8.00;99.90
21648;DHT22;10985;54.182;7.890;2023-04-19T05:38:11;8.00;99.90
21648;DHT22;10985;54.182;7.890;2023-04-19T05:40:37;8.10;99.90
21648;DHT22;10985;54.182;7.890;2023-04-19T05:43:04;8.10;99.90
21648;DHT22;10985;54.182;7.890;2023-04-19T05:45:29;8.10;99.90
21648;DHT22;10985;54.182;7.890;2023-04-19T05:47:55;8.10;99.90
21648;DHT22;10985;54.182;7.890;2023-04-19T05:50:20;8.10;99.90
21648;DHT22;10985;54.182;7.890;2023-04-19T05:52:46;8.10;99.90
21648;DHT22;10985;54.182;7.890;2023-04-19T05:55:12;8.20;99.90
21648;DHT22;10985;54.182;7.890;2023-04-19T05:57:37;8.20;99.90
21648;DHT22;10985;54.182;7.890;2023-04-19T06:00:03;8.20;99.90
21648;DHT22;10985;54.182;7.890;2023-04-19T06:02:29;8.20;99.90
21648;DHT22;10985;54.182;7.890;2023-04-19T06:04:55;8.20;99.90
21648;DHT22;10985;54.182;7.890;2023-04-19T06:07:22;8.20;99.90
21648;DHT22;10985;54.182;7.890;2023-04-19T06:09:47;8.20;99.90
21648;DHT22;10985;54.182;7.890;2023-04-19T06:12:13;8.20;99.90
21648;DHT22;10985;54.182;7.890;2023-04-19T06:14:38;8.20;99.90
21648;DHT22;10985;54.182;7.890;2023-04-19T06:17:04;8.20;99.90
21648;DHT22;10985;54.182;7.890;2023-04-19T06:19:30;8.30;99.90
21648;DHT22;10985;54.182;7.890;2023-04-19T06:21:58;8.30;99.90
21648;DHT22;10985;54.182;7.890;2023-04-19T06:24:24;8.30;99.90
21648;DHT22;10985;54.182;7.890;2023-04-19T06:26:49;8.30;99.90
21648;DHT22;10985;54.182;7.890;2023-04-19T06:29:15;8.40;99.90
21648;DHT22;10985;54.182;7.890;2023-04-19T06:31:40;8.40;99.90
21648;DHT22;10985;54.182;7.890;2023-04-19T06:34:07;8.40;99.90
21648;DHT22;10985;54.182;7.890;2023-04-19T06:36:32;8.40;99.90
21648;DHT22;10985;54.182;7.890;2023-04-19T06:38:58;8.50;99.90
21648;DHT22;10985;54.182;7.890;2023-04-19T06:41:23;8.50;99.90
21648;DHT22;10985;54.182;7.890;2023-04-19T06:43:49;8.50;99.90
21648;DHT22;10985;54.182;7.890;2023-04-19T06:46:14;8.60;99.90
21648;DHT22;10985;54.182;7.890;2023-04-19T06:48:40;8.60;99.90
21648;DHT22;10985;54.182;7.890;2023-04-19T06:51:06;8.60;99.90
21648;DHT22;10985;54.182;7.890;2023-04-19T06:53:32;8.70;99.90
21648;DHT22;10985;54.182;7.890;2023-04-19T06:55:59;8.70;99.90
21648;DHT22;10985;54.182;7.890;2023-04-19T06:58:28;8.70;99.90
21648;DHT22;10985;54.182;7.890;2023-04-19T07:00:54;8.80;99.90
21648;DHT22;10985;54.182;7.890;2023-04-19T07:03:20;8.80;99.90
21648;DHT22;10985;54.182;7.890;2023-04-19T07:05:46;8.90;99.90
21648;DHT22;10985;54.182;7.890;2023-04-19T07:08:12;8.90;99.90
21648;DHT22;10985;54.182;7.890;2023-04-19T07:10:37;8.90;99.90
21648;DHT22;10985;54.182;7.890;2023-04-19T07:13:03;8.90;99.90
21648;DHT22;10985;54.182;7.890;2023-04-19T07:15:29;9.00;99.90
21648;DHT22;10985;54.182;7.890;2023-04-19T07:17:54;9.00;99.90
21648;DHT22;10985;54.182;7.890;2023-04-19T07:20:20;9.10;99.90
21648;DHT22;10985;54.182;7.890;2023-04-19T07:22:46;9.10;99.90
21648;DHT22;10985;54.182;7.890;2023-04-19T07:25:12;9.20;99.90
21648;DHT22;10985;54.182;7.890;2023-04-19T07:27:38;9.20;99.90
21648;DHT22;10985;54.182;7.890;2023-04-19T07:30:05;9.30;99.90
21648;DHT22;10985;54.182;7.890;2023-04-19T07:32:31;9.40;99.90
21648;DHT22;10985;54.182;7.890;2023-04-19T07:34:56;9.40;99.90
21648;DHT22;10985;54.182;7.890;2023-04-19T07:37:22;9.50;99.90
21648;DHT22;10985;54.182;7.890;2023-04-19T07:39:47;9.60;99.90
21648;DHT22;10985;54.182;7.890;2023-04-19T07:42:13;9.60;99.90
21648;DHT22;10985;54.182;7.890;2023-04-19T07:44:38;9.70;99.90
21648;DHT22;10985;54.182;7.890;2023-04-19T07:47:04;9.90;99.90
21648;DHT22;10985;54.182;7.890;2023-04-19T07:49:30;10.00;99.90
21648;DHT22;10985;54.182;7.890;2023-04-19T07:51:59;10.10;99.90
21648;DHT22;10985;54.182;7.890;2023-04-19T07:54:26;10.30;99.90
21648;DHT22;10985;54.182;7.890;2023-04-19T07:56:51;10.50;99.90
21648;DHT22;10985;54.182;7.890;2023-04-19T07:59:17;10.70;99.90
21648;DHT22;10985;54.182;7.890;2023-04-19T08:01:42;10.90;99.90
21648;DHT22;10985;54.182;7.890;2023-04-19T08:04:08;11.10;99.90
21648;DHT22;10985;54.182;7.890;2023-04-19T08:06:34;11.40;99.90
21648;DHT22;10985;54.182;7.890;2023-04-19T08:09:02;11.60;99.90
21648;DHT22;10985;54.182;7.890;2023-04-19T08:11:28;11.80;99.90
21648;DHT22;10985;54.182;7.890;2023-04-19T08:13:53;12.10;99.90
21648;DHT22;10985;54.182;7.890;2023-04-19T08:16:19;12.30;99.90
21648;DHT22;10985;54.182;7.890;2023-04-19T08:18:44;12.50;99.90
21648;DHT22;10985;54.182;7.890;2023-04-19T08:21:10;12.70;99.90
21648;DHT22;10985;54.182;7.890;2023-04-19T08:23:36;12.90;99.90
21648;DHT22;10985;54.182;7.890;2023-04-19T08:26:02;13.00;99.90
21648;DHT22;10985;54.182;7.890;2023-04-19T08:28:27;13.20;99.90
21648;DHT22;10985;54.182;7.890;2023-04-19T08:30:53;13.40;99.90
21648;DHT22;10985;54.182;7.890;2023-04-19T08:33:19;13.60;99.90
21648;DHT22;10985;54.182;7.890;2023-04-19T08:35:44;13.90;99.90
21648;DHT22;10985;54.182;7.890;2023-04-19T08:38:10;14.20;99.90
21648;DHT22;10985;54.182;7.890;2023-04-19T08:40:40;14.50;99.90
21648;DHT22;10985;54.182;7.890;2023-04-19T08:43:06;14.80;99.90
21648;DHT22;10985;54.182;7.890;2023-04-19T08:45:31;15.10;99.90
21648;DHT22;10985;54.182;7.890;2023-04-19T08:47:57;15.40;99.90
21648;DHT22;10985;54.182;7.890;2023-04-19T08:50:24;15.70;99.90
21648;DHT22;10985;54.182;7.890;2023-04-19T08:52:50;15.90;99.90
21648;DHT22;10985;54.182;7.890;2023-04-19T08:55:16;16.10;99.90
21648;DHT22;10985;54.182;7.890;2023-04-19T08:57:42;16.40;99.90
21648;DHT22;10985;54.182;7.890;2023-04-19T09:00:08;16.50;99.90
21648;DHT22;10985;54.182;7.890;2023-04-19T09:02:45;16.70;99.90
21648;DHT22;10985;54.182;7.890;2023-04-19T09:05:12;16.70;99.90
21648;DHT22;10985;54.182;7.890;2023-04-19T09:07:38;16.70;99.90
21648;DHT22;10985;54.182;7.890;2023-04-19T09:12:32;17.10;99.90
21648;DHT22;10985;54.182;7.890;2023-04-19T09:15:00;17.50;99.90
21648;DHT22;10985;54.182;7.890;2023-04-19T09:17:28;17.90;99.90
21648;DHT22;10985;54.182;7.890;2023-04-19T09:19:54;18.10;99.90
21648;DHT22;10985;54.182;7.890;2023-04-19T09:22:21;18.50;99.90
21648;DHT22;10985;54.182;7.890;2023-04-19T09:24:47;18.70;99.90
21648;DHT22;10985;54.182;7.890;2023-04-19T09:27:16;19.00;99.90
21648;DHT22;10985;54.182;7.890;2023-04-19T09:29:52;19.20;99.90
21648;DHT22;10985;54.182;7.890;2023-04-19T09:32:18;19.50;99.90
21648;DHT22;10985;54.182;7.890;2023-04-19T09:34:57;19.70;99.90
21648;DHT22;10985;54.182;7.890;2023-04-19T09:37:23;19.90;99.90
21648;DHT22;10985;54.182;7.890;2023-04-19T09:39:50;20.10;99.90
21648;DHT22;10985;54.182;7.890;2023-04-19T09:42:16;20.40;99.90
21648;DHT22;10985;54.182;7.890;2023-04-19T09:44:57;20.50;99.90
21648;DHT22;10985;54.182;7.890;2023-04-19T09:47:24;20.80;99.90
21648;DHT22;10985;54.182;7.890;2023-04-19T09:50:16;21.00;99.90
21648;DHT22;10985;54.182;7.890;2023-04-19T09:52:43;21.20;99.90
21648;DHT22;10985;54.182;7.890;2023-04-19T09:55:10;21.40;99.90
21648;DHT22;10985;54.182;7.890;2023-04-19T09:57:35;21.70;99.90
21648;DHT22;10985;54.182;7.890;2023-04-19T10:00:01;21.80;99.90
21648;DHT22;10985;54.182;7.890;2023-04-19T10:02:31;22.10;99.90
21648;DHT22;10985;54.182;7.890;2023-04-19T10:04:57;22.20;99.90
21648;DHT22;10985;54.182;7.890;2023-04-19T10:07:24;22.40;99.90
21648;DHT22;10985;54.182;7.890;2023-04-19T10:09:53;22.60;99.90
21648;DHT22;10985;54.182;7.890;2023-04-19T10:12:24;22.90;99.50
21648;DHT22;10985;54.182;7.890;2023-04-19T10:14:55;23.20;98.70
21648;DHT22;10985;54.182;7.890;2023-04-19T10:17:24;23.40;98.30
21648;DHT22;10985;54.182;7.890;2023-04-19T10:27:34;24.50;95.50
21648;DHT22;10985;54.182;7.890;2023-04-19T10:30:01;24.70;95.00
21648;DHT22;10985;54.182;7.890;2023-04-19T10:32:42;24.90;94.20
21648;DHT22;10985;54.182;7.890;2023-04-19T10:35:20;25.20;93.10
21648;DHT22;10985;54.182;7.890;2023-04-19T10:38:05;25.50;92.50
21648;DHT22;10985;54.182;7.890;2023-04-19T10:43:20;25.90;90.90
21648;DHT22;10985;54.182;7.890;2023-04-19T10:45:46;26.10;90.40
21648;DHT22;10985;54.182;7.890;2023-04-19T10:51:38;26.50;88.60
21648;DHT22;10985;54.182;7.890;2023-04-19T10:54:07;26.70;88.30
21648;DHT22;10985;54.182;7.890;2023-04-19T11:01:34;27.20;85.70
21648;DHT22;10985;54.182;7.890;2023-04-19T11:04:08;27.40;82.80
21648;DHT22;10985;54.182;7.890;2023-04-19T11:06:39;27.40;80.30
21648;DHT22;10985;54.182;7.890;2023-04-19T11:09:28;27.50;78.60
21648;DHT22;10985;54.182;7.890;2023-04-19T11:12:00;27.60;77.90
21648;DHT22;10985;54.182;7.890;2023-04-19T11:14:29;27.80;74.70
21648;DHT22;10985;54.182;7.890;2023-04-19T11:16:55;27.90;74.70
21648;DHT22;10985;54.182;7.890;2023-04-19T11:19:21;28.10;73.70
21648;DHT22;10985;54.182;7.890;2023-04-19T11:21:47;28.30;76.90
21648;DHT22;10985;54.182;7.890;2023-04-19T11:24:14;28.40;77.80
21648;DHT22;10985;54.182;7.890;2023-04-19T11:26:46;28.40;78.00
21648;DHT22;10985;54.182;7.890;2023-04-19T11:29:15;28.50;79.20
21648;DHT22;10985;54.182;7.890;2023-04-19T11:31:43;28.70;79.10
21648;DHT22;10985;54.182;7.890;2023-04-19T11:34:10;28.50;78.90
21648;DHT22;10985;54.182;7.890;2023-04-19T11:36:50;28.60;78.10
21648;DHT22;10985;54.182;7.890;2023-04-19T11:39:15;28.70;74.40
21648;DHT22;10985;54.182;7.890;2023-04-19T11:41:41;28.70;72.80
21648;DHT22;10985;54.182;7.890;2023-04-19T11:44:14;28.90;72.80
21648;DHT22;10985;54.182;7.890;2023-04-19T11:46:39;29.10;72.40
21648;DHT22;10985;54.182;7.890;2023-04-19T11:49:05;29.10;71.30
21648;DHT22;10985;54.182;7.890;2023-04-19T11:51:31;29.10;70.60
21648;DHT22;10985;54.182;7.890;2023-04-19T11:53:57;29.10;69.60
21648;DHT22;10985;54.182;7.890;2023-04-19T11:56:22;29.30;69.00
21648;DHT22;10985;54.182;7.890;2023-04-19T11:58:48;29.40;67.50
21648;DHT22;10985;54.182;7.890;2023-04-19T12:01:15;29.40;67.00
21648;DHT22;10985;54.182;7.890;2023-04-19T12:03:53;29.30;66.30
21648;DHT22;10985;54.182;7.890;2023-04-19T12:06:25;29.40;65.80
21648;DHT22;10985;54.182;7.890;2023-04-19T12:08:52;29.60;64.60
21648;DHT22;10985;54.182;7.890;2023-04-19T12:11:20;29.50;64.00
21648;DHT22;10985;54.182;7.890;2023-04-19T12:13:48;29.60;63.70
21648;DHT22;10985;54.182;7.890;2023-04-19T12:16:13;29.50;64.10
21648;DHT22;10985;54.182;7.890;2023-04-19T12:21:10;29.10;64.50
21648;DHT22;10985;54.182;7.890;2023-04-19T12:23:36;28.80;64.30
21648;DHT22;10985;54.182;7.890;2023-04-19T12:26:03;28.60;64.50
21648;DHT22;10985;54.182;7.890;2023-04-19T12:28:30;28.40;65.30
21648;DHT22;10985;54.182;7.890;2023-04-19T12:30:55;28.10;66.20
21648;DHT22;10985;54.182;7.890;2023-04-19T12:33:21;28.00;67.20
21648;DHT22;10985;54.182;7.890;2023-04-19T12:35:46;27.90;67.90
21648;DHT22;10985;54.182;7.890;2023-04-19T12:38:12;27.70;68.70
21648;DHT22;10985;54.182;7.890;2023-04-19T12:40:37;27.60;69.50
21648;DHT22;10985;54.182;7.890;2023-04-19T12:43:05;27.40;70.70
21648;DHT22;10985;54.182;7.890;2023-04-19T12:45:31;27.30;71.70
21648;DHT22;10985;54.182;7.890;2023-04-19T12:47:57;27.20;71.80
21648;DHT22;10985;54.182;7.890;2023-04-19T12:50:22;27.20;72.40
21648;DHT22;10985;54.182;7.890;2023-04-19T12:52:48;27.20;73.10
21648;DHT22;10985;54.182;7.890;2023-04-19T12:55:15;27.30;73.50
21648;DHT22;10985;54.182;7.890;2023-04-19T12:57:40;27.30;73.80
21648;DHT22;10985;54.182;7.890;2023-04-19T13:00:07;27.30;73.60
21648;DHT22;10985;54.182;7.890;2023-04-19T13:02:34;27.30;73.80
21648;DHT22;10985;54.182;7.890;2023-04-19T13:04:59;27.10;74.50
21648;DHT22;10985;54.182;7.890;2023-04-19T13:07:25;27.00;74.80
21648;DHT22;10985;54.182;7.890;2023-04-19T13:09:50;26.90;74.70
21648;DHT22;10985;54.182;7.890;2023-04-19T13:12:16;26.80;75.20
21648;DHT22;10985;54.182;7.890;2023-04-19T13:14:41;26.60;75.60
21648;DHT22;10985;54.182;7.890;2023-04-19T13:17:07;26.30;76.30
21648;DHT22;10985;54.182;7.890;2023-04-19T13:19:33;25.90;78.10
21648;DHT22;10985;54.182;7.890;2023-04-19T13:21:58;25.50;79.20
21648;DHT22;10985;54.182;7.890;2023-04-19T13:24:24;25.10;80.80
21648;DHT22;10985;54.182;7.890;2023-04-19T13:26:49;24.70;83.30
21648;DHT22;10985;54.182;7.890;2023-04-19T13:29:15;24.30;85.80
21648;DHT22;10985;54.182;7.890;2023-04-19T13:31:40;23.80;89.50
21648;DHT22;10985;54.182;7.890;2023-04-19T13:34:07;23.40;90.80
21648;DHT22;10985;54.182;7.890;2023-04-19T13:36:33;23.00;92.50
21648;DHT22;10985;54.182;7.890;2023-04-19T13:38:58;22.60;94.30
21648;DHT22;10985;54.182;7.890;2023-04-19T13:41:24;22.10;95.60
21648;DHT22;10985;54.182;7.890;2023-04-19T13:43:50;21.70;97.50
21648;DHT22;10985;54.182;7.890;2023-04-19T13:46:15;21.20;99.30
21648;DHT22;10985;54.182;7.890;2023-04-19T13:48:41;20.70;99.90
21648;DHT22;10985;54.182;7.890;2023-04-19T13:51:06;20.30;99.90
21648;DHT22;10985;54.182;7.890;2023-04-19T13:53:32;19.80;99.90
21648;DHT22;10985;54.182;7.890;2023-04-19T13:55:58;19.40;99.90
21648;DHT22;10985;54.182;7.890;2023-04-19T13:58:23;19.10;99.90
21648;DHT22;10985;54.182;7.890;2023-04-19T14:00:49;18.80;99.90
21648;DHT22;10985;54.182;7.890;2023-04-19T14:03:15;18.50;99.90
21648;DHT22;10985;54.182;7.890;2023-04-19T14:05:41;18.30;99.90
21648;DHT22;10985;54.182;7.890;2023-04-19T14:08:07;17.90;99.90
21648;DHT22;10985;54.182;7.890;2023-04-19T14:10:33;17.70;99.90
21648;DHT22;10985;54.182;7.890;2023-04-19T14:12:59;17.50;99.90
21648;DHT22;10985;54.182;7.890;2023-04-19T14:15:24;17.30;99.90
21648;DHT22;10985;54.182;7.890;2023-04-19T14:17:50;17.00;99.90
21648;DHT22;10985;54.182;7.890;2023-04-19T14:20:16;16.90;99.90
21648;DHT22;10985;54.182;7.890;2023-04-19T14:22:42;16.70;99.90
21648;DHT22;10985;54.182;7.890;2023-04-19T14:25:08;16.60;99.90
21648;DHT22;10985;54.182;7.890;2023-04-19T14:27:34;16.40;99.90
21648;DHT22;10985;54.182;7.890;2023-04-19T14:29:59;16.20;99.90
21648;DHT22;10985;54.182;7.890;2023-04-19T14:32:25;16.10;99.90
21648;DHT22;10985;54.182;7.890;2023-04-19T14:34:51;16.00;99.90
21648;DHT22;10985;54.182;7.890;2023-04-19T14:37:17;15.90;99.90
21648;DHT22;10985;54.182;7.890;2023-04-19T14:39:46;15.80;99.90
21648;DHT22;10985;54.182;7.890;2023-04-19T14:42:12;15.80;99.90
21648;DHT22;10985;54.182;7.890;2023-04-19T14:44:37;15.70;99.90
21648;DHT22;10985;54.182;7.890;2023-04-19T14:47:03;15.70;99.90
21648;DHT22;10985;54.182;7.890;2023-04-19T14:49:28;15.70;99.90
21648;DHT22;10985;54.182;7.890;2023-04-19T14:51:54;15.50;99.90
21648;DHT22;10985;54.182;7.890;2023-04-19T14:54:19;15.50;99.90
21648;DHT22;10985;54.182;7.890;2023-04-19T14:56:45;15.40;99.90
21648;DHT22;10985;54.182;7.890;2023-04-19T14:59:11;15.30;99.90
21648;DHT22;10985;54.182;7.890;2023-04-19T15:01:37;15.20;99.90
21648;DHT22;10985;54.182;7.890;2023-04-19T15:04:02;15.10;99.90
21648;DHT22;10985;54.182;7.890;2023-04-19T15:06:28;15.10;99.90
21648;DHT22;10985;54.182;7.890;2023-04-19T15:08:53;15.00;99.90
21648;DHT22;10985;54.182;7.890;2023-04-19T15:11:19;15.00;99.90
21648;DHT22;10985;54.182;7.890;2023-04-19T15:13:44;15.00;99.90
21648;DHT22;10985;54.182;7.890;2023-04-19T15:16:10;14.90;99.90
21648;DHT22;10985;54.182;7.890;2023-04-19T15:18:35;14.90;99.90
21648;DHT22;10985;54.182;7.890;2023-04-19T15:21:02;14.90;99.90
21648;DHT22;10985;54.182;7.890;2023-04-19T15:23:28;14.90;99.90
21648;DHT22;10985;54.182;7.890;2023-04-19T15:25:54;14.80;99.90
21648;DHT22;10985;54.182;7.890;2023-04-19T15:28:21;14.80;99.90
21648;DHT22;10985;54.182;7.890;2023-04-19T15:31:01;14.80;99.90
21648;DHT22;10985;54.182;7.890;2023-04-19T15:33:27;14.80;99.90
21648;DHT22;10985;54.182;7.890;2023-04-19T15:35:53;14.70;99.90
21648;DHT22;10985;54.182;7.890;2023-04-19T15:38:24;14.70;99.90
21648;DHT22;10985;54.182;7.890;2023-04-19T15:40:50;14.70;99.90
21648;DHT22;10985;54.182;7.890;2023-04-19T15:43:16;14.70;99.90
21648;DHT22;10985;54.182;7.890;2023-04-19T15:45:41;14.60;99.90
21648;DHT22;10985;54.182;7.890;2023-04-19T15:48:07;14.60;99.90
21648;DHT22;10985;54.182;7.890;2023-04-19T15:50:35;14.60;99.90
21648;DHT22;10985;54.182;7.890;2023-04-19T15:53:00;14.50;99.90
21648;DHT22;10985;54.182;7.890;2023-04-19T15:55:26;14.50;99.90